Middleton Island, Alaska
Current Conditions -  °F | °C
As of 6:16 PM on Monday 20 Oct 2014 (Local Time) from PAMD Reporting Station
Scattered Clouds Scattered Clouds  
Wind Chill:   Ceiling: Unl
Heat Index:   Visibility: 10mi
Dew Point:   Wind: 7mph
Humidity: 81%   Direction: 190°S
Pressure: 29.17"   Gusts: NA
Location:  59.43°N, 146.33°W
Report Text: PAMD 210216Z 19006KT 10SM FEW019 SCT039 05/02 A2917 RMK AO1
Loading
Personal Weather Stations






























Interactive Weather Map
Tropical Storm Tracking
New forecast layout! Learn more

10-Day Weather Forecast

Advertisements
Track Severe Weather on mobile